Řízení letového provozu České republiky
Letiste: LKPR Aktualizace: 20.07.2018 15:38:07  UTC
 METAR LKPR 20.07. 15:30 ...
METAR LKPR 201530Z VRB04KT CAVOK 28/08 Q1013 NOSIG RMK REG QNH 1010=
 TAF LKPR 20.07. 11:00 ...
TAF LKPR 201100Z 2012/2118 05008KT CAVOK      BECMG 2020/2021 09007KT      BECMG 2109/2111 9999 SCT045      TEMPO 2111/2115 12012G24KT 7000 SHRA SCT040CB BKN045=